Пилотам вертолетов

Aviation Digital Data Service (ADDS)

Output produced by METARs form (1403 UTC 23 May 2018)
found at http://aviationweather.gov/adds/metars/
 
METAR text: UUWW 231330Z 25006MPS CAVOK 22/10 Q1022 R24/000070 NOSIG
Conditions at: UUWW (MOSCOW/VNUKOVO , RU) observed 1330 UTC 23 May 2018
Temperature: 22.0°C (72°F)
Dewpoint: 10.0°C (50°F) [RH = 46%]
Pressure (altimeter): 30.18 inches Hg (1022.0 mb)
Winds: from the WSW (250 degrees) at 14 MPH (12 knots; 6.2 m/s)
Visibility: 6 or more miles (10+ km)
Ceiling: ceiling and visibility are OK
Clouds: unknown
Weather: no significant weather observed at this time
Forecast for: UUWW (MOSCOW/VNUKOVO , RU)
Text: TAF UUWW 231057Z 2312/2412 27003MPS 9999 SCT030 TX23/2412Z TN11/2402Z
Forecast period: 1200 to 1800 UTC 23 May 2018
Forecast type: FROM: standard forecast or significant change
Winds: from the W (270 degrees) at 7 MPH (6 knots; 3.1 m/s)
Visibility: 6 or more miles (10+ km)
Clouds: scattered clouds at 3000 feet AGL
Weather: no significant weather forecast for this period
Forecast for: UUWW (MOSCOW/VNUKOVO , RU)
Text: TAF UUWW 231057Z 2312/2412 27003MPS 9999 SCT030 TX23/2412Z TN11/2402Z
Forecast period: 1200 to 1800 UTC 23 May 2018
Forecast type: FROM: standard forecast or significant change
Winds: from the W (270 degrees) at 7 MPH (6 knots; 3.1 m/s)
Visibility: 6 or more miles (10+ km)
Clouds: scattered clouds at 3000 feet AGL
Weather: no significant weather forecast for this period
Forecast for: UUWW (MOSCOW/VNUKOVO , RU)
Text: TAF UUWW 231057Z 2312/2412 27003MPS 9999 SCT030 TX23/2412Z TN11/2402Z
Forecast period: 1800 UTC 23 May 2018 to 0300 UTC 24 May 2018
Forecast type: BECOMING: Conditions expected to become as follows by 2000 UTC 23 May 2018
Winds: variable direction winds at 2 MPH (2 knots; 1.0 m/s)
Visibility: 6 or more miles (10+ km)
Clouds: scattered clouds at 3000 feet AGL
Weather: no significant weather forecast for this period
Forecast for: UUWW (MOSCOW/VNUKOVO , RU)
Text: TAF UUWW 231057Z 2312/2412 27003MPS 9999 SCT030 TX23/2412Z TN11/2402Z
Forecast period: 1800 UTC 23 May 2018 to 0300 UTC 24 May 2018
Forecast type: BECOMING: Conditions expected to become as follows by 2000 UTC 23 May 2018
Winds: variable direction winds at 2 MPH (2 knots; 1.0 m/s)
Visibility: 6 or more miles (10+ km)
Clouds: scattered clouds at 3000 feet AGL
Weather: no significant weather forecast for this period
Forecast for: UUWW (MOSCOW/VNUKOVO , RU)
Text: TAF UUWW 231057Z 2312/2412 27003MPS 9999 SCT030 TX23/2412Z TN11/2402Z
Forecast period: 0300 to 1200 UTC 24 May 2018
Forecast type: BECOMING: Conditions expected to become as follows by 0500 UTC 24 May 2018
Winds: from the N (10 degrees) at 12 MPH (10 knots; 5.2 m/s)
Visibility: 6 or more miles (10+ km)
Clouds: scattered clouds at 3000 feet AGL
Weather: no significant weather forecast for this period
Forecast for: UUWW (MOSCOW/VNUKOVO , RU)
Text: TAF UUWW 231057Z 2312/2412 27003MPS 9999 SCT030 TX23/2412Z TN11/2402Z
Forecast period: 0300 to 1200 UTC 24 May 2018
Forecast type: BECOMING: Conditions expected to become as follows by 0500 UTC 24 May 2018
Winds: from the N (10 degrees) at 12 MPH (10 knots; 5.2 m/s)
Visibility: 6 or more miles (10+ km)
Clouds: scattered clouds at 3000 feet AGL
Weather: no significant weather forecast for this period
METAR text: UUEE 231330Z 26005MPS 9999 SCT046 22/12 Q1022 R24C/CLRD62 R24L/CLRD62 NOSIG
Conditions at: UUEE (MOSCOW/SHEREMET', RU) observed 1330 UTC 23 May 2018
Temperature: 22.0°C (72°F)
Dewpoint: 12.0°C (54°F) [RH = 53%]
Pressure (altimeter): 30.18 inches Hg (1022.0 mb)
Winds: from the W (260 degrees) at 12 MPH (10 knots; 5.2 m/s)
Visibility: 6 or more miles (10+ km)
Ceiling: at least 12,000 feet AGL
Clouds: scattered clouds at 4600 feet AGL
Weather: no significant weather observed at this time
Forecast for: UUEE (MOSCOW/SHEREMET', RU)
Text: TAF UUEE 231049Z 2312/2412 24005MPS 9999 SCT030 TX22/2312Z TN11/2402Z
Forecast period: 1200 to 1800 UTC 23 May 2018
Forecast type: FROM: standard forecast or significant change
Winds: from the WSW (240 degrees) at 12 MPH (10 knots; 5.2 m/s)
Visibility: 6 or more miles (10+ km)
Clouds: scattered clouds at 3000 feet AGL
Weather: no significant weather forecast for this period
Forecast for: UUEE (MOSCOW/SHEREMET', RU)
Text: TAF UUEE 231049Z 2312/2412 24005MPS 9999 SCT030 TX22/2312Z TN11/2402Z
Forecast period: 1200 to 1800 UTC 23 May 2018
Forecast type: FROM: standard forecast or significant change
Winds: from the WSW (240 degrees) at 12 MPH (10 knots; 5.2 m/s)
Visibility: 6 or more miles (10+ km)
Clouds: scattered clouds at 3000 feet AGL
Weather: no significant weather forecast for this period
Forecast for: UUEE (MOSCOW/SHEREMET', RU)
Text: TAF UUEE 231049Z 2312/2412 24005MPS 9999 SCT030 TX22/2312Z TN11/2402Z
Forecast period: 1600 to 1800 UTC 23 May 2018
Forecast type: TEMPORARY: The following changes expected for less than half the time period
Winds: variable direction winds at 2 MPH (2 knots; 1.0 m/s)
Weather: no significant weather forecast for this period
Forecast for: UUEE (MOSCOW/SHEREMET', RU)
Text: TAF UUEE 231049Z 2312/2412 24005MPS 9999 SCT030 TX22/2312Z TN11/2402Z
Forecast period: 1600 to 1800 UTC 23 May 2018
Forecast type: TEMPORARY: The following changes expected for less than half the time period
Winds: variable direction winds at 2 MPH (2 knots; 1.0 m/s)
Weather: no significant weather forecast for this period
Forecast for: UUEE (MOSCOW/SHEREMET', RU)
Text: TAF UUEE 231049Z 2312/2412 24005MPS 9999 SCT030 TX22/2312Z TN11/2402Z
Forecast period: 1800 UTC 23 May 2018 to 1200 UTC 24 May 2018
Forecast type: BECOMING: Conditions expected to become as follows by 2000 UTC 23 May 2018
Winds: from the NNE (20 degrees) at 7 MPH (6 knots; 3.1 m/s)
Visibility: 6 or more miles (10+ km)
Clouds: scattered clouds at 3000 feet AGL
Weather: no significant weather forecast for this period
Forecast for: UUEE (MOSCOW/SHEREMET', RU)
Text: TAF UUEE 231049Z 2312/2412 24005MPS 9999 SCT030 TX22/2312Z TN11/2402Z
Forecast period: 1800 UTC 23 May 2018 to 1200 UTC 24 May 2018
Forecast type: BECOMING: Conditions expected to become as follows by 2000 UTC 23 May 2018
Winds: from the NNE (20 degrees) at 7 MPH (6 knots; 3.1 m/s)
Visibility: 6 or more miles (10+ km)
Clouds: scattered clouds at 3000 feet AGL
Weather: no significant weather forecast for this period
METAR text: UUDD 231330Z 27003MPS 230V310 CAVOK 24/10 Q1022 R88/010095 NOSIG
Conditions at: UUDD (MOSCOW/DOMODEDOV, RU) observed 1330 UTC 23 May 2018
Temperature: 24.0°C (75°F)
Dewpoint: 10.0°C (50°F) [RH = 41%]
Pressure (altimeter): 30.18 inches Hg (1022.0 mb)
Winds: from the W (270 degrees) at 7 MPH (6 knots; 3.1 m/s)
Visibility: 6 or more miles (10+ km)
Ceiling: ceiling and visibility are OK
Clouds: unknown
Weather: no significant weather observed at this time
Forecast for: UUDD (MOSCOW/DOMODEDOV, RU)
Text: TAF UUDD 231057Z 2312/2418 26002MPS 9999 SCT040 TX25/2312Z TN11/2402Z
Forecast period: 1200 UTC 23 May 2018 to 0000 UTC 24 May 2018
Forecast type: FROM: standard forecast or significant change
Winds: from the W (260 degrees) at 5 MPH (4 knots; 2.1 m/s)
Visibility: 6 or more miles (10+ km)
Clouds: scattered clouds at 4000 feet AGL
Weather: no significant weather forecast for this period
Forecast for: UUDD (MOSCOW/DOMODEDOV, RU)
Text: TAF UUDD 231057Z 2312/2418 26002MPS 9999 SCT040 TX25/2312Z TN11/2402Z
Forecast period: 1200 UTC 23 May 2018 to 0000 UTC 24 May 2018
Forecast type: FROM: standard forecast or significant change
Winds: from the W (260 degrees) at 5 MPH (4 knots; 2.1 m/s)
Visibility: 6 or more miles (10+ km)
Clouds: scattered clouds at 4000 feet AGL
Weather: no significant weather forecast for this period
Forecast for: UUDD (MOSCOW/DOMODEDOV, RU)
Text: TAF UUDD 231057Z 2312/2418 26002MPS 9999 SCT040 TX25/2312Z TN11/2402Z
Forecast period: 1200 to 1700 UTC 23 May 2018
Forecast type: TEMPORARY: The following changes expected for less than half the time period
Winds: from the WSW (240 degrees) at 16 MPH (14 knots; 7.3 m/s)
Weather: no significant weather forecast for this period
Forecast for: UUDD (MOSCOW/DOMODEDOV, RU)
Text: TAF UUDD 231057Z 2312/2418 26002MPS 9999 SCT040 TX25/2312Z TN11/2402Z
Forecast period: 1200 to 1700 UTC 23 May 2018
Forecast type: TEMPORARY: The following changes expected for less than half the time period
Winds: from the WSW (240 degrees) at 16 MPH (14 knots; 7.3 m/s)
Weather: no significant weather forecast for this period
Forecast for: UUDD (MOSCOW/DOMODEDOV, RU)
Text: TAF UUDD 231057Z 2312/2418 26002MPS 9999 SCT040 TX25/2312Z TN11/2402Z
Forecast period: 2200 UTC 23 May 2018 to 0200 UTC 24 May 2018
Forecast type: TEMPORARY: The following changes expected for less than half the time period
Visibility: 0.19 miles (0.31 km)
Clouds: few clouds at 300 feet AGL
Weather: FG  (fog)
Forecast for: UUDD (MOSCOW/DOMODEDOV, RU)
Text: TAF UUDD 231057Z 2312/2418 26002MPS 9999 SCT040 TX25/2312Z TN11/2402Z
Forecast period: 2200 UTC 23 May 2018 to 0200 UTC 24 May 2018
Forecast type: TEMPORARY: The following changes expected for less than half the time period
Visibility: 0.19 miles (0.31 km)
Clouds: few clouds at 300 feet AGL
Weather: FG  (fog)
Forecast for: UUDD (MOSCOW/DOMODEDOV, RU)
Text: TAF UUDD 231057Z 2312/2418 26002MPS 9999 SCT040 TX25/2312Z TN11/2402Z
Forecast period: 0000 to 1800 UTC 24 May 2018
Forecast type: BECOMING: Conditions expected to become as follows by 0200 UTC 24 May 2018
Winds: from the NNE (20 degrees) at 12 MPH (10 knots; 5.2 m/s)
Visibility: 6 or more miles (10+ km)
Clouds: scattered clouds at 4000 feet AGL
Weather: no significant weather forecast for this period
Forecast for: UUDD (MOSCOW/DOMODEDOV, RU)
Text: TAF UUDD 231057Z 2312/2418 26002MPS 9999 SCT040 TX25/2312Z TN11/2402Z
Forecast period: 0000 to 1800 UTC 24 May 2018
Forecast type: BECOMING: Conditions expected to become as follows by 0200 UTC 24 May 2018
Winds: from the NNE (20 degrees) at 12 MPH (10 knots; 5.2 m/s)
Visibility: 6 or more miles (10+ km)
Clouds: scattered clouds at 4000 feet AGL
Weather: no significant weather forecast for this period